JAMI weather

Jamies
Harrisburg, Arkansas, United States

Public forecast

Using degrees Fahrenheit for public forecast. Weather courtesy of forecast.io.

METAR (pilot weather report)

Closest report is Jonesboro Municipal Airport, 19.1 nm (35.4 km) NNE. Retrieved 2019/06/24 07:53 UTC (59 minutes ago):

KJBR 240753Z AUTO 25004KT 10SM -RA BKN060 OVC110 20/18 A2982 RMK AO2 RAB20 SLP094 P0003 T02000183 $

TAF (pilot weather forecast)

Closest forecast is Jonesboro Municipal Airport, 19.1 nm (35.4 km) NNE. Retrieved 2019/06/24 06:24 UTC (2 hours ago):

TAF KJBR 240522Z 2406/2506 25009KT P6SM -SHRA SCT015 OVC070 FM241000 21008KT P6SM VCSH BKN015 FM241400 24012G19KT P6SM BKN020 FM241800 25014G20KT P6SM BKN040 BKN250 FM250000 25006KT P6SM SCT250